sensor_id;sensor_type;location;lat;lon;timestamp;temperature;humidity
27368;DHT22;14839;48.106;11.618;2023-03-14T05:02:17;7.90;94.60
27368;DHT22;14839;48.106;11.618;2023-03-14T05:04:42;8.00;94.60
27368;DHT22;14839;48.106;11.618;2023-03-14T05:07:08;8.00;94.60
27368;DHT22;14839;48.106;11.618;2023-03-14T05:09:33;8.00;94.60
27368;DHT22;14839;48.106;11.618;2023-03-14T05:11:59;7.90;94.60
27368;DHT22;14839;48.106;11.618;2023-03-14T05:14:25;7.90;94.60
27368;DHT22;14839;48.106;11.618;2023-03-14T05:16:50;7.90;94.60
27368;DHT22;14839;48.106;11.618;2023-03-14T05:19:16;7.90;94.60
27368;DHT22;14839;48.106;11.618;2023-03-14T05:21:41;7.90;94.60
27368;DHT22;14839;48.106;11.618;2023-03-14T05:24:07;7.90;94.60
27368;DHT22;14839;48.106;11.618;2023-03-14T05:26:32;7.90;94.60
27368;DHT22;14839;48.106;11.618;2023-03-14T05:28:58;7.90;94.60
27368;DHT22;14839;48.106;11.618;2023-03-14T05:31:24;7.90;94.60
27368;DHT22;14839;48.106;11.618;2023-03-14T05:33:49;7.90;94.60
27368;DHT22;14839;48.106;11.618;2023-03-14T05:36:15;7.80;94.60
27368;DHT22;14839;48.106;11.618;2023-03-14T05:38:40;7.80;94.60
27368;DHT22;14839;48.106;11.618;2023-03-14T05:41:06;7.80;94.60
27368;DHT22;14839;48.106;11.618;2023-03-14T05:43:32;7.80;94.60
27368;DHT22;14839;48.106;11.618;2023-03-14T05:45:58;7.80;94.60
27368;DHT22;14839;48.106;11.618;2023-03-14T05:48:23;7.90;94.60
27368;DHT22;14839;48.106;11.618;2023-03-14T05:50:55;7.90;94.60
27368;DHT22;14839;48.106;11.618;2023-03-14T05:53:20;7.90;94.60
27368;DHT22;14839;48.106;11.618;2023-03-14T05:55:46;7.90;94.60
27368;DHT22;14839;48.106;11.618;2023-03-14T05:58:12;7.90;94.60
27368;DHT22;14839;48.106;11.618;2023-03-14T06:00:37;7.80;94.60
27368;DHT22;14839;48.106;11.618;2023-03-14T06:03:03;7.80;94.60
27368;DHT22;14839;48.106;11.618;2023-03-14T06:05:28;7.80;94.60
27368;DHT22;14839;48.106;11.618;2023-03-14T06:07:54;7.80;94.60
27368;DHT22;14839;48.106;11.618;2023-03-14T06:10:20;7.90;94.60
27368;DHT22;14839;48.106;11.618;2023-03-14T06:12:45;7.90;94.60
27368;DHT22;14839;48.106;11.618;2023-03-14T06:15:11;7.90;94.60
27368;DHT22;14839;48.106;11.618;2023-03-14T06:17:37;7.90;94.60
27368;DHT22;14839;48.106;11.618;2023-03-14T06:20:02;8.00;94.60
27368;DHT22;14839;48.106;11.618;2023-03-14T06:22:28;8.00;94.60
27368;DHT22;14839;48.106;11.618;2023-03-14T06:24:54;8.10;94.60
27368;DHT22;14839;48.106;11.618;2023-03-14T06:27:19;8.10;94.60
27368;DHT22;14839;48.106;11.618;2023-03-14T06:29:45;8.10;94.60
27368;DHT22;14839;48.106;11.618;2023-03-14T06:32:10;8.10;94.60
27368;DHT22;14839;48.106;11.618;2023-03-14T06:34:36;8.10;94.60
27368;DHT22;14839;48.106;11.618;2023-03-14T06:37:02;8.20;94.60
27368;DHT22;14839;48.106;11.618;2023-03-14T06:39:27;8.20;94.60
27368;DHT22;14839;48.106;11.618;2023-03-14T06:41:53;8.30;94.60
27368;DHT22;14839;48.106;11.618;2023-03-14T06:44:18;8.40;94.60
27368;DHT22;14839;48.106;11.618;2023-03-14T06:46:44;8.50;94.60
27368;DHT22;14839;48.106;11.618;2023-03-14T06:49:10;8.60;94.60
27368;DHT22;14839;48.106;11.618;2023-03-14T06:51:35;8.60;94.60
27368;DHT22;14839;48.106;11.618;2023-03-14T06:54:01;8.80;94.60
27368;DHT22;14839;48.106;11.618;2023-03-14T06:56:26;8.90;94.60
27368;DHT22;14839;48.106;11.618;2023-03-14T06:58:52;9.00;94.60
27368;DHT22;14839;48.106;11.618;2023-03-14T07:01:24;9.10;94.60
27368;DHT22;14839;48.106;11.618;2023-03-14T07:03:50;9.10;94.60
27368;DHT22;14839;48.106;11.618;2023-03-14T07:06:15;9.10;94.60
27368;DHT22;14839;48.106;11.618;2023-03-14T07:08:41;9.00;94.60
27368;DHT22;14839;48.106;11.618;2023-03-14T07:11:07;9.00;94.60
27368;DHT22;14839;48.106;11.618;2023-03-14T07:13:33;8.90;94.60
27368;DHT22;14839;48.106;11.618;2023-03-14T07:15:58;8.90;94.60
27368;DHT22;14839;48.106;11.618;2023-03-14T07:18:24;8.90;94.60
27368;DHT22;14839;48.106;11.618;2023-03-14T07:20:50;8.80;94.60
27368;DHT22;14839;48.106;11.618;2023-03-14T07:23:16;8.80;94.60
27368;DHT22;14839;48.106;11.618;2023-03-14T07:25:42;8.80;94.60
27368;DHT22;14839;48.106;11.618;2023-03-14T07:28:07;8.80;94.60
27368;DHT22;14839;48.106;11.618;2023-03-14T07:30:33;8.80;94.60
27368;DHT22;14839;48.106;11.618;2023-03-14T07:32:58;8.90;94.60
27368;DHT22;14839;48.106;11.618;2023-03-14T07:35:24;8.90;94.60
27368;DHT22;14839;48.106;11.618;2023-03-14T07:37:49;8.90;94.60
27368;DHT22;14839;48.106;11.618;2023-03-14T07:40:15;8.90;94.60
27368;DHT22;14839;48.106;11.618;2023-03-14T07:42:42;8.90;94.60
27368;DHT22;14839;48.106;11.618;2023-03-14T07:45:09;8.90;94.60
27368;DHT22;14839;48.106;11.618;2023-03-14T07:47:35;9.10;94.60
27368;DHT22;14839;48.106;11.618;2023-03-14T07:50:02;9.20;94.60
27368;DHT22;14839;48.106;11.618;2023-03-14T07:52:28;9.30;94.60
27368;DHT22;14839;48.106;11.618;2023-03-14T07:54:53;9.40;94.60
27368;DHT22;14839;48.106;11.618;2023-03-14T07:57:19;9.50;94.60
27368;DHT22;14839;48.106;11.618;2023-03-14T07:59:44;9.50;94.60
27368;DHT22;14839;48.106;11.618;2023-03-14T08:02:11;9.50;94.60
27368;DHT22;14839;48.106;11.618;2023-03-14T08:04:38;9.70;94.60
27368;DHT22;14839;48.106;11.618;2023-03-14T08:07:04;9.90;94.60
27368;DHT22;14839;48.106;11.618;2023-03-14T08:09:29;10.10;94.60
27368;DHT22;14839;48.106;11.618;2023-03-14T08:11:55;10.20;94.60
27368;DHT22;14839;48.106;11.618;2023-03-14T08:14:21;10.20;94.60
27368;DHT22;14839;48.106;11.618;2023-03-14T08:16:49;10.20;94.60
27368;DHT22;14839;48.106;11.618;2023-03-14T08:19:15;10.20;94.60
27368;DHT22;14839;48.106;11.618;2023-03-14T08:21:40;10.30;94.60
27368;DHT22;14839;48.106;11.618;2023-03-14T08:24:06;10.40;94.60
27368;DHT22;14839;48.106;11.618;2023-03-14T08:26:31;10.50;94.60
27368;DHT22;14839;48.106;11.618;2023-03-14T08:28:57;10.40;94.60
27368;DHT22;14839;48.106;11.618;2023-03-14T08:31:23;10.50;94.60
27368;DHT22;14839;48.106;11.618;2023-03-14T08:33:48;10.60;94.60
27368;DHT22;14839;48.106;11.618;2023-03-14T08:36:14;10.60;94.60
27368;DHT22;14839;48.106;11.618;2023-03-14T08:38:40;10.60;94.40
27368;DHT22;14839;48.106;11.618;2023-03-14T08:41:08;10.70;94.20
27368;DHT22;14839;48.106;11.618;2023-03-14T08:43:34;10.60;94.20
27368;DHT22;14839;48.106;11.618;2023-03-14T08:46:01;10.70;93.70
27368;DHT22;14839;48.106;11.618;2023-03-14T08:48:27;10.70;93.50
27368;DHT22;14839;48.106;11.618;2023-03-14T08:50:55;10.70;92.60
27368;DHT22;14839;48.106;11.618;2023-03-14T08:53:20;10.70;93.00
27368;DHT22;14839;48.106;11.618;2023-03-14T08:55:51;10.70;93.60
27368;DHT22;14839;48.106;11.618;2023-03-14T08:58:17;10.70;92.90
27368;DHT22;14839;48.106;11.618;2023-03-14T09:00:42;10.70;93.30
27368;DHT22;14839;48.106;11.618;2023-03-14T09:03:08;10.60;93.70
27368;DHT22;14839;48.106;11.618;2023-03-14T09:05:34;10.60;94.00
27368;DHT22;14839;48.106;11.618;2023-03-14T09:08:00;10.60;93.90
27368;DHT22;14839;48.106;11.618;2023-03-14T09:10:26;10.50;93.70
27368;DHT22;14839;48.106;11.618;2023-03-14T09:12:51;10.70;93.80
27368;DHT22;14839;48.106;11.618;2023-03-14T09:15:17;10.80;93.60
27368;DHT22;14839;48.106;11.618;2023-03-14T09:17:43;10.80;93.20
27368;DHT22;14839;48.106;11.618;2023-03-14T09:20:10;10.70;93.60
27368;DHT22;14839;48.106;11.618;2023-03-14T09:22:36;10.90;93.20
27368;DHT22;14839;48.106;11.618;2023-03-14T09:25:05;10.90;93.20
27368;DHT22;14839;48.106;11.618;2023-03-14T09:27:31;11.10;92.10
27368;DHT22;14839;48.106;11.618;2023-03-14T09:29:57;11.00;92.10
27368;DHT22;14839;48.106;11.618;2023-03-14T09:32:22;11.10;92.10
27368;DHT22;14839;48.106;11.618;2023-03-14T09:34:48;11.00;92.50
27368;DHT22;14839;48.106;11.618;2023-03-14T09:37:14;10.90;92.00
27368;DHT22;14839;48.106;11.618;2023-03-14T09:39:41;10.90;92.80
27368;DHT22;14839;48.106;11.618;2023-03-14T09:42:10;10.80;93.50
27368;DHT22;14839;48.106;11.618;2023-03-14T09:44:51;10.90;93.10
27368;DHT22;14839;48.106;11.618;2023-03-14T09:47:19;10.90;93.00
27368;DHT22;14839;48.106;11.618;2023-03-14T09:49:45;10.80;93.10
27368;DHT22;14839;48.106;11.618;2023-03-14T09:52:31;10.80;93.70
27368;DHT22;14839;48.106;11.618;2023-03-14T09:54:57;10.90;93.40
27368;DHT22;14839;48.106;11.618;2023-03-14T09:57:25;10.90;93.60
27368;DHT22;14839;48.106;11.618;2023-03-14T09:59:54;11.00;93.80
27368;DHT22;14839;48.106;11.618;2023-03-14T10:02:31;11.10;93.70
27368;DHT22;14839;48.106;11.618;2023-03-14T10:04:57;11.10;93.60
27368;DHT22;14839;48.106;11.618;2023-03-14T10:07:31;11.10;92.80
27368;DHT22;14839;48.106;11.618;2023-03-14T10:09:58;11.30;93.20
27368;DHT22;14839;48.106;11.618;2023-03-14T10:12:32;11.10;92.90
27368;DHT22;14839;48.106;11.618;2023-03-14T10:15:09;11.10;92.90
27368;DHT22;14839;48.106;11.618;2023-03-14T10:17:44;11.10;92.30
27368;DHT22;14839;48.106;11.618;2023-03-14T10:20:33;11.10;91.50
27368;DHT22;14839;48.106;11.618;2023-03-14T10:23:05;11.40;90.80
27368;DHT22;14839;48.106;11.618;2023-03-14T10:25:36;11.50;90.50
27368;DHT22;14839;48.106;11.618;2023-03-14T10:28:04;11.80;89.90
27368;DHT22;14839;48.106;11.618;2023-03-14T10:33:31;12.30;85.70
27368;DHT22;14839;48.106;11.618;2023-03-14T10:38:35;13.60;82.70
27368;DHT22;14839;48.106;11.618;2023-03-14T10:41:02;13.90;80.30
27368;DHT22;14839;48.106;11.618;2023-03-14T10:43:32;14.10;80.50
27368;DHT22;14839;48.106;11.618;2023-03-14T10:46:02;14.50;78.80
27368;DHT22;14839;48.106;11.618;2023-03-14T10:48:33;14.60;78.80
27368;DHT22;14839;48.106;11.618;2023-03-14T10:51:07;14.80;78.50
27368;DHT22;14839;48.106;11.618;2023-03-14T10:56:05;15.20;76.10
27368;DHT22;14839;48.106;11.618;2023-03-14T10:58:35;15.20;73.90
27368;DHT22;14839;48.106;11.618;2023-03-14T11:04:22;14.40;76.90
27368;DHT22;14839;48.106;11.618;2023-03-14T11:06:56;14.20;77.30
27368;DHT22;14839;48.106;11.618;2023-03-14T11:09:42;13.90;78.10
27368;DHT22;14839;48.106;11.618;2023-03-14T11:12:34;13.80;78.50
27368;DHT22;14839;48.106;11.618;2023-03-14T11:15:16;13.80;78.40
27368;DHT22;14839;48.106;11.618;2023-03-14T11:23:23;13.40;79.40
27368;DHT22;14839;48.106;11.618;2023-03-14T11:28:39;13.70;78.20
27368;DHT22;14839;48.106;11.618;2023-03-14T11:31:16;13.80;77.50
27368;DHT22;14839;48.106;11.618;2023-03-14T11:36:21;13.90;77.00
27368;DHT22;14839;48.106;11.618;2023-03-14T11:38:50;14.00;76.00
27368;DHT22;14839;48.106;11.618;2023-03-14T11:41:37;14.10;75.20
27368;DHT22;14839;48.106;11.618;2023-03-14T11:44:30;14.20;74.30
27368;DHT22;14839;48.106;11.618;2023-03-14T11:47:20;14.50;74.00
27368;DHT22;14839;48.106;11.618;2023-03-14T11:52:34;14.50;70.00
27368;DHT22;14839;48.106;11.618;2023-03-14T11:55:12;14.30;70.90
27368;DHT22;14839;48.106;11.618;2023-03-14T11:57:39;14.10;70.60
27368;DHT22;14839;48.106;11.618;2023-03-14T12:00:20;13.80;71.30
27368;DHT22;14839;48.106;11.618;2023-03-14T12:02:53;13.60;72.40
27368;DHT22;14839;48.106;11.618;2023-03-14T12:05:25;13.40;71.90
27368;DHT22;14839;48.106;11.618;2023-03-14T12:11:25;13.40;73.00
27368;DHT22;14839;48.106;11.618;2023-03-14T12:13:52;13.70;73.40
27368;DHT22;14839;48.106;11.618;2023-03-14T12:18:51;13.80;72.40
27368;DHT22;14839;48.106;11.618;2023-03-14T12:21:18;13.80;72.20
27368;DHT22;14839;48.106;11.618;2023-03-14T12:23:52;13.80;72.50
27368;DHT22;14839;48.106;11.618;2023-03-14T12:26:24;13.80;72.10
27368;DHT22;14839;48.106;11.618;2023-03-14T12:45:32;13.20;74.80
27368;DHT22;14839;48.106;11.618;2023-03-14T12:48:15;13.30;74.30
27368;DHT22;14839;48.106;11.618;2023-03-14T12:50:53;13.50;73.70
27368;DHT22;14839;48.106;11.618;2023-03-14T12:59:46;13.70;72.80
27368;DHT22;14839;48.106;11.618;2023-03-14T13:02:27;13.90;73.90
27368;DHT22;14839;48.106;11.618;2023-03-14T13:07:36;14.20;73.00
27368;DHT22;14839;48.106;11.618;2023-03-14T13:10:24;14.10;72.50
27368;DHT22;14839;48.106;11.618;2023-03-14T13:12:56;14.00;73.30
27368;DHT22;14839;48.106;11.618;2023-03-14T13:15:42;13.60;73.00
27368;DHT22;14839;48.106;11.618;2023-03-14T13:18:26;13.30;74.50
27368;DHT22;14839;48.106;11.618;2023-03-14T13:20:53;13.30;75.40
27368;DHT22;14839;48.106;11.618;2023-03-14T13:23:25;13.40;75.20
27368;DHT22;14839;48.106;11.618;2023-03-14T13:25:51;13.40;74.20
27368;DHT22;14839;48.106;11.618;2023-03-14T13:28:18;13.50;75.20
27368;DHT22;14839;48.106;11.618;2023-03-14T13:30:46;13.50;75.10
27368;DHT22;14839;48.106;11.618;2023-03-14T13:33:22;13.40;75.10
27368;DHT22;14839;48.106;11.618;2023-03-14T13:35:59;13.20;75.40
27368;DHT22;14839;48.106;11.618;2023-03-14T13:38:28;13.30;75.40
27368;DHT22;14839;48.106;11.618;2023-03-14T13:40:59;13.30;76.10
27368;DHT22;14839;48.106;11.618;2023-03-14T13:43:34;12.90;77.20
27368;DHT22;14839;48.106;11.618;2023-03-14T13:46:12;12.50;77.90
27368;DHT22;14839;48.106;11.618;2023-03-14T13:48:50;12.40;78.80
27368;DHT22;14839;48.106;11.618;2023-03-14T13:51:20;12.10;79.70
27368;DHT22;14839;48.106;11.618;2023-03-14T13:53:54;11.90;81.10
27368;DHT22;14839;48.106;11.618;2023-03-14T13:56:23;11.70;81.70
27368;DHT22;14839;48.106;11.618;2023-03-14T13:58:49;11.50;84.10
27368;DHT22;14839;48.106;11.618;2023-03-14T14:01:35;11.40;85.70
27368;DHT22;14839;48.106;11.618;2023-03-14T14:04:07;11.40;87.40
27368;DHT22;14839;48.106;11.618;2023-03-14T14:06:38;11.40;88.10
27368;DHT22;14839;48.106;11.618;2023-03-14T14:09:14;11.10;88.00
27368;DHT22;14839;48.106;11.618;2023-03-14T14:17:14;10.50;93.60
27368;DHT22;14839;48.106;11.618;2023-03-14T14:19:41;10.20;94.60
27368;DHT22;14839;48.106;11.618;2023-03-14T14:22:11;10.00;94.60
27368;DHT22;14839;48.106;11.618;2023-03-14T14:24:37;9.80;94.60
27368;DHT22;14839;48.106;11.618;2023-03-14T14:27:27;9.40;94.60
27368;DHT22;14839;48.106;11.618;2023-03-14T14:32:43;9.20;94.60
27368;DHT22;14839;48.106;11.618;2023-03-14T14:35:25;8.90;94.60
27368;DHT22;14839;48.106;11.618;2023-03-14T14:37:52;8.70;94.60
27368;DHT22;14839;48.106;11.618;2023-03-14T14:40:23;8.50;94.60
27368;DHT22;14839;48.106;11.618;2023-03-14T14:42:49;8.50;94.60
27368;DHT22;14839;48.106;11.618;2023-03-14T14:45:23;8.40;94.60
27368;DHT22;14839;48.106;11.618;2023-03-14T14:47:53;8.30;94.60
27368;DHT22;14839;48.106;11.618;2023-03-14T14:50:30;8.20;94.60
27368;DHT22;14839;48.106;11.618;2023-03-14T14:52:58;8.10;94.60
27368;DHT22;14839;48.106;11.618;2023-03-14T14:55:32;8.00;94.60
27368;DHT22;14839;48.106;11.618;2023-03-14T14:58:12;7.90;94.60
27368;DHT22;14839;48.106;11.618;2023-03-14T15:00:41;8.00;94.60
27368;DHT22;14839;48.106;11.618;2023-03-14T15:03:12;8.00;94.60
27368;DHT22;14839;48.106;11.618;2023-03-14T15:05:40;8.00;94.60
27368;DHT22;14839;48.106;11.618;2023-03-14T15:08:09;8.00;94.60
27368;DHT22;14839;48.106;11.618;2023-03-14T15:10:35;7.90;94.60
27368;DHT22;14839;48.106;11.618;2023-03-14T15:13:01;7.80;94.60
27368;DHT22;14839;48.106;11.618;2023-03-14T15:15:26;7.80;94.60
27368;DHT22;14839;48.106;11.618;2023-03-14T15:17:52;7.90;94.60
27368;DHT22;14839;48.106;11.618;2023-03-14T15:20:18;8.00;94.60
27368;DHT22;14839;48.106;11.618;2023-03-14T15:22:45;8.10;94.60
27368;DHT22;14839;48.106;11.618;2023-03-14T15:25:12;8.20;94.60
27368;DHT22;14839;48.106;11.618;2023-03-14T15:27:38;8.20;94.60
27368;DHT22;14839;48.106;11.618;2023-03-14T15:30:15;8.20;94.60
27368;DHT22;14839;48.106;11.618;2023-03-14T15:32:41;8.20;94.60
27368;DHT22;14839;48.106;11.618;2023-03-14T15:35:07;8.30;94.60
27368;DHT22;14839;48.106;11.618;2023-03-14T15:37:33;8.20;94.60
27368;DHT22;14839;48.106;11.618;2023-03-14T15:40:00;8.20;94.60
27368;DHT22;14839;48.106;11.618;2023-03-14T15:42:28;8.20;94.60
27368;DHT22;14839;48.106;11.618;2023-03-14T15:44:53;8.10;94.60
27368;DHT22;14839;48.106;11.618;2023-03-14T15:47:19;8.00;94.60
27368;DHT22;14839;48.106;11.618;2023-03-14T15:49:45;8.00;94.60
27368;DHT22;14839;48.106;11.618;2023-03-14T15:52:10;7.90;94.60
27368;DHT22;14839;48.106;11.618;2023-03-14T15:54:36;7.80;94.60
27368;DHT22;14839;48.106;11.618;2023-03-14T15:57:02;7.80;94.60
27368;DHT22;14839;48.106;11.618;2023-03-14T15:59:27;7.60;94.60
27368;DHT22;14839;48.106;11.618;2023-03-14T16:01:53;7.30;94.60
27368;DHT22;14839;48.106;11.618;2023-03-14T16:04:19;7.10;94.60
27368;DHT22;14839;48.106;11.618;2023-03-14T16:06:45;7.00;94.60
27368;DHT22;14839;48.106;11.618;2023-03-14T16:09:11;6.90;94.60
27368;DHT22;14839;48.106;11.618;2023-03-14T16:11:37;6.80;94.60
27368;DHT22;14839;48.106;11.618;2023-03-14T16:14:03;6.70;94.60
27368;DHT22;14839;48.106;11.618;2023-03-14T16:16:29;6.60;94.60
27368;DHT22;14839;48.106;11.618;2023-03-14T16:18:54;6.70;94.60
27368;DHT22;14839;48.106;11.618;2023-03-14T16:21:20;6.80;94.60
27368;DHT22;14839;48.106;11.618;2023-03-14T16:23:46;6.80;94.60
27368;DHT22;14839;48.106;11.618;2023-03-14T16:26:15;6.90;94.60
27368;DHT22;14839;48.106;11.618;2023-03-14T16:28:41;7.10;94.60
27368;DHT22;14839;48.106;11.618;2023-03-14T16:31:09;7.10;94.60
27368;DHT22;14839;48.106;11.618;2023-03-14T16:33:36;7.20;94.60
27368;DHT22;14839;48.106;11.618;2023-03-14T16:36:04;7.20;94.60
27368;DHT22;14839;48.106;11.618;2023-03-14T16:38:33;7.20;94.60
27368;DHT22;14839;48.106;11.618;2023-03-14T16:43:30;7.20;92.80
27368;DHT22;14839;48.106;11.618;2023-03-14T16:46:00;7.10;89.90
27368;DHT22;14839;48.106;11.618;2023-03-14T16:48:29;7.10;90.30
27368;DHT22;14839;48.106;11.618;2023-03-14T16:50:55;7.10;90.50
27368;DHT22;14839;48.106;11.618;2023-03-14T16:53:22;7.10;91.20
27368;DHT22;14839;48.106;11.618;2023-03-14T16:55:49;7.00;91.40
27368;DHT22;14839;48.106;11.618;2023-03-14T16:58:15;7.00;91.80
27368;DHT22;14839;48.106;11.618;2023-03-14T17:00:44;7.00;92.60
27368;DHT22;14839;48.106;11.618;2023-03-14T17:03:10;7.00;92.70
27368;DHT22;14839;48.106;11.618;2023-03-14T17:05:36;6.90;93.00
27368;DHT22;14839;48.106;11.618;2023-03-14T17:08:03;6.90;92.60
27368;DHT22;14839;48.106;11.618;2023-03-14T17:10:28;6.90;92.50
27368;DHT22;14839;48.106;11.618;2023-03-14T17:12:54;6.90;92.70
27368;DHT22;14839;48.106;11.618;2023-03-14T17:15:19;6.90;92.00
27368;DHT22;14839;48.106;11.618;2023-03-14T17:17:45;6.90;91.60
27368;DHT22;14839;48.106;11.618;2023-03-14T17:20:11;6.90;91.20
27368;DHT22;14839;48.106;11.618;2023-03-14T17:22:37;6.90;90.20
27368;DHT22;14839;48.106;11.618;2023-03-14T17:25:02;6.90;89.90
27368;DHT22;14839;48.106;11.618;2023-03-14T17:27:28;6.80;90.10
27368;DHT22;14839;48.106;11.618;2023-03-14T17:29:54;6.90;89.50
27368;DHT22;14839;48.106;11.618;2023-03-14T17:32:20;6.80;87.20
27368;DHT22;14839;48.106;11.618;2023-03-14T17:34:45;6.70;88.00
27368;DHT22;14839;48.106;11.618;2023-03-14T17:37:11;6.60;87.20
27368;DHT22;14839;48.106;11.618;2023-03-14T17:39:37;6.50;86.30
27368;DHT22;14839;48.106;11.618;2023-03-14T17:42:04;6.40;84.40
27368;DHT22;14839;48.106;11.618;2023-03-14T17:44:30;6.40;85.10
27368;DHT22;14839;48.106;11.618;2023-03-14T17:46:56;6.30;85.30
27368;DHT22;14839;48.106;11.618;2023-03-14T17:49:22;6.30;84.70
27368;DHT22;14839;48.106;11.618;2023-03-14T17:51:48;6.20;84.70
27368;DHT22;14839;48.106;11.618;2023-03-14T17:54:14;6.10;85.10
27368;DHT22;14839;48.106;11.618;2023-03-14T17:56:39;6.10;83.90
27368;DHT22;14839;48.106;11.618;2023-03-14T17:59:09;6.00;84.40
27368;DHT22;14839;48.106;11.618;2023-03-14T18:01:35;6.00;83.80
27368;DHT22;14839;48.106;11.618;2023-03-14T18:04:00;5.90;84.80
27368;DHT22;14839;48.106;11.618;2023-03-14T18:06:26;5.90;85.10
27368;DHT22;14839;48.106;11.618;2023-03-14T18:08:55;5.90;85.00
27368;DHT22;14839;48.106;11.618;2023-03-14T18:11:21;5.80;85.10
27368;DHT22;14839;48.106;11.618;2023-03-14T18:13:47;5.70;84.80
27368;DHT22;14839;48.106;11.618;2023-03-14T18:16:13;5.70;86.30
27368;DHT22;14839;48.106;11.618;2023-03-14T18:18:39;5.70;85.60
27368;DHT22;14839;48.106;11.618;2023-03-14T18:21:05;5.60;86.20
27368;DHT22;14839;48.106;11.618;2023-03-14T18:23:32;5.60;86.80
27368;DHT22;14839;48.106;11.618;2023-03-14T18:25:58;5.60;86.60
27368;DHT22;14839;48.106;11.618;2023-03-14T18:28:25;5.60;86.50
27368;DHT22;14839;48.106;11.618;2023-03-14T18:30:51;5.60;86.50
27368;DHT22;14839;48.106;11.618;2023-03-14T18:33:21;5.60;86.90
27368;DHT22;14839;48.106;11.618;2023-03-14T18:35:48;5.50;87.50
27368;DHT22;14839;48.106;11.618;2023-03-14T18:38:16;5.50;88.00
27368;DHT22;14839;48.106;11.618;2023-03-14T18:40:41;5.50;88.40
27368;DHT22;14839;48.106;11.618;2023-03-14T18:43:07;5.40;88.40
27368;DHT22;14839;48.106;11.618;2023-03-14T18:45:33;5.30;89.00
27368;DHT22;14839;48.106;11.618;2023-03-14T18:48:07;5.30;89.50
27368;DHT22;14839;48.106;11.618;2023-03-14T18:50:42;5.20;89.90
27368;DHT22;14839;48.106;11.618;2023-03-14T18:53:07;5.10;90.50
27368;DHT22;14839;48.106;11.618;2023-03-14T18:55:34;5.10;91.20
27368;DHT22;14839;48.106;11.618;2023-03-14T18:57:59;5.10;91.40
27368;DHT22;14839;48.106;11.618;2023-03-14T19:00:25;5.10;91.70
27368;DHT22;14839;48.106;11.618;2023-03-14T19:02:51;5.00;91.90
27368;DHT22;14839;48.106;11.618;2023-03-14T19:05:17;5.00;92.50
27368;DHT22;14839;48.106;11.618;2023-03-14T19:07:42;5.00;93.80
27368;DHT22;14839;48.106;11.618;2023-03-14T19:10:09;5.00;94.00
27368;DHT22;14839;48.106;11.618;2023-03-14T19:12:35;5.00;94.10
27368;DHT22;14839;48.106;11.618;2023-03-14T19:15:00;5.00;94.30
27368;DHT22;14839;48.106;11.618;2023-03-14T19:17:26;5.00;94.10
27368;DHT22;14839;48.106;11.618;2023-03-14T19:19:52;5.10;94.00
27368;DHT22;14839;48.106;11.618;2023-03-14T19:22:18;5.10;93.80
27368;DHT22;14839;48.106;11.618;2023-03-14T19:24:43;5.20;93.60
27368;DHT22;14839;48.106;11.618;2023-03-14T19:27:09;5.30;93.50
27368;DHT22;14839;48.106;11.618;2023-03-14T19:29:35;5.30;93.20
27368;DHT22;14839;48.106;11.618;2023-03-14T19:32:07;5.40;93.00
27368;DHT22;14839;48.106;11.618;2023-03-14T19:34:33;5.50;93.10
27368;DHT22;14839;48.106;11.618;2023-03-14T19:36:58;5.50;93.00
27368;DHT22;14839;48.106;11.618;2023-03-14T19:39:24;5.50;92.80
27368;DHT22;14839;48.106;11.618;2023-03-14T19:41:50;5.60;92.60
27368;DHT22;14839;48.106;11.618;2023-03-14T19:44:24;5.70;92.60
27368;DHT22;14839;48.106;11.618;2023-03-14T19:46:50;5.70;92.40
27368;DHT22;14839;48.106;11.618;2023-03-14T19:49:16;5.70;92.70
27368;DHT22;14839;48.106;11.618;2023-03-14T19:51:42;5.70;92.70
27368;DHT22;14839;48.106;11.618;2023-03-14T19:54:07;5.70;92.70
27368;DHT22;14839;48.106;11.618;2023-03-14T19:56:33;5.80;92.80
27368;DHT22;14839;48.106;11.618;2023-03-14T19:58:59;5.80;93.00
27368;DHT22;14839;48.106;11.618;2023-03-14T20:01:27;5.80;92.90
27368;DHT22;14839;48.106;11.618;2023-03-14T20:03:53;5.80;93.30
27368;DHT22;14839;48.106;11.618;2023-03-14T20:06:20;5.80;93.10
27368;DHT22;14839;48.106;11.618;2023-03-14T20:08:46;5.80;93.20
27368;DHT22;14839;48.106;11.618;2023-03-14T20:11:11;5.80;93.40
27368;DHT22;14839;48.106;11.618;2023-03-14T20:13:37;5.80;93.70
27368;DHT22;14839;48.106;11.618;2023-03-14T20:16:04;5.80;93.90
27368;DHT22;14839;48.106;11.618;2023-03-14T20:18:30;5.90;93.90
27368;DHT22;14839;48.106;11.618;2023-03-14T20:20:56;5.80;94.30
27368;DHT22;14839;48.106;11.618;2023-03-14T20:23:22;5.80;94.30
27368;DHT22;14839;48.106;11.618;2023-03-14T20:25:55;5.80;94.40
27368;DHT22;14839;48.106;11.618;2023-03-14T20:28:21;5.80;94.60
27368;DHT22;14839;48.106;11.618;2023-03-14T20:30:47;5.80;94.30
27368;DHT22;14839;48.106;11.618;2023-03-14T20:33:13;5.80;94.50
27368;DHT22;14839;48.106;11.618;2023-03-14T20:35:40;5.90;94.20
27368;DHT22;14839;48.106;11.618;2023-03-14T20:38:06;5.90;94.40
27368;DHT22;14839;48.106;11.618;2023-03-14T20:40:33;5.90;94.60
27368;DHT22;14839;48.106;11.618;2023-03-14T20:42:59;5.80;94.60
27368;DHT22;14839;48.106;11.618;2023-03-14T20:45:24;5.80;94.60
27368;DHT22;14839;48.106;11.618;2023-03-14T20:47:50;5.80;94.60
27368;DHT22;14839;48.106;11.618;2023-03-14T20:50:16;5.70;94.60
27368;DHT22;14839;48.106;11.618;2023-03-14T20:52:42;5.70;94.60
27368;DHT22;14839;48.106;11.618;2023-03-14T20:55:08;5.50;94.60
27368;DHT22;14839;48.106;11.618;2023-03-14T20:57:33;5.40;94.60
27368;DHT22;14839;48.106;11.618;2023-03-14T20:59:59;5.10;94.60
27368;DHT22;14839;48.106;11.618;2023-03-14T21:02:24;5.00;94.60
27368;DHT22;14839;48.106;11.618;2023-03-14T21:04:50;4.90;94.60
27368;DHT22;14839;48.106;11.618;2023-03-14T21:07:17;4.80;94.60
27368;DHT22;14839;48.106;11.618;2023-03-14T21:09:44;4.70;94.60
27368;DHT22;14839;48.106;11.618;2023-03-14T21:12:10;4.60;94.60
27368;DHT22;14839;48.106;11.618;2023-03-14T21:14:35;4.50;94.60
27368;DHT22;14839;48.106;11.618;2023-03-14T21:17:01;4.50;94.60
27368;DHT22;14839;48.106;11.618;2023-03-14T21:19:27;4.40;94.60
27368;DHT22;14839;48.106;11.618;2023-03-14T21:22:00;4.40;94.60
27368;DHT22;14839;48.106;11.618;2023-03-14T21:24:26;4.40;94.60
27368;DHT22;14839;48.106;11.618;2023-03-14T21:26:53;4.30;94.60
27368;DHT22;14839;48.106;11.618;2023-03-14T21:29:19;4.30;94.60
27368;DHT22;14839;48.106;11.618;2023-03-14T21:31:46;4.20;94.60
27368;DHT22;14839;48.106;11.618;2023-03-14T21:34:11;4.20;94.60
27368;DHT22;14839;48.106;11.618;2023-03-14T21:36:37;4.20;94.60
27368;DHT22;14839;48.106;11.618;2023-03-14T21:39:03;4.20;94.60